createdAt,value
2017-09-18T00:01:05.544Z,6.47
2017-09-18T00:03:33.118Z,6.07
2017-09-18T00:06:00.698Z,5.97
2017-09-18T00:08:28.294Z,6.50
2017-09-18T00:10:56.071Z,5.70
2017-09-18T00:13:23.658Z,5.37
2017-09-18T00:15:52.036Z,5.32
2017-09-18T00:18:19.598Z,4.20
2017-09-18T00:20:47.953Z,5.40
2017-09-18T00:23:15.511Z,6.40
2017-09-18T00:25:43.129Z,6.22
2017-09-18T00:28:10.801Z,6.30
2017-09-18T00:30:38.350Z,5.65
2017-09-18T00:33:05.941Z,6.25
2017-09-18T00:35:33.538Z,6.22
2017-09-18T00:38:01.114Z,4.90
2017-09-18T00:40:29.454Z,4.47
2017-09-18T00:42:57.020Z,4.55
2017-09-18T00:45:24.600Z,4.95
2017-09-18T00:47:52.162Z,4.90
2017-09-18T00:50:19.728Z,6.62
2017-09-18T00:52:47.265Z,5.70
2017-09-18T00:55:14.842Z,5.22
2017-09-18T00:57:42.424Z,5.40
2017-09-18T01:00:09.998Z,5.28
2017-09-18T01:02:37.559Z,4.80
2017-09-18T01:05:05.226Z,4.70
2017-09-18T01:07:32.805Z,4.75
2017-09-18T01:10:00.381Z,5.00
2017-09-18T01:12:30.998Z,4.55
2017-09-18T01:14:58.564Z,4.37
2017-09-18T01:17:26.168Z,5.10
2017-09-18T01:19:53.718Z,5.30
2017-09-18T01:22:21.312Z,5.30
2017-09-18T01:24:49.727Z,4.80
2017-09-18T01:27:17.298Z,4.55
2017-09-18T01:29:44.867Z,4.60
2017-09-18T01:32:12.531Z,4.03
2017-09-18T01:34:40.101Z,4.47
2017-09-18T01:37:19.510Z,4.40
2017-09-18T01:39:47.185Z,4.97
2017-09-18T01:42:14.758Z,3.97
2017-09-18T01:44:42.323Z,4.43
2017-09-18T01:47:09.906Z,3.87
2017-09-18T01:49:37.483Z,4.10
2017-09-18T01:52:05.802Z,5.22
2017-09-18T01:54:33.371Z,4.20
2017-09-18T01:57:01.093Z,4.15
2017-09-18T01:59:29.431Z,4.50
2017-09-18T02:01:56.999Z,4.53
2017-09-18T02:04:24.548Z,4.75
2017-09-18T02:06:53.111Z,5.40
2017-09-18T02:09:20.681Z,4.40
2017-09-18T02:11:48.230Z,4.53
2017-09-18T02:14:15.806Z,5.65
2017-09-18T02:16:43.372Z,4.30
2017-09-18T02:19:10.956Z,3.67
2017-09-18T02:21:38.623Z,3.50
2017-09-18T02:24:06.189Z,3.80
2017-09-18T02:26:33.780Z,3.90
2017-09-18T02:29:02.130Z,4.55
2017-09-18T02:31:29.716Z,4.10
2017-09-18T02:33:58.026Z,4.80
2017-09-18T02:36:33.528Z,4.75
2017-09-18T02:39:01.854Z,4.35
2017-09-18T02:41:29.440Z,4.60
2017-09-18T02:43:56.998Z,4.07
2017-09-18T02:46:24.571Z,4.03
2017-09-18T02:48:52.135Z,3.95
2017-09-18T02:51:19.794Z,5.53
2017-09-18T02:53:47.374Z,4.12
2017-09-18T02:56:15.712Z,3.62
2017-09-18T02:58:43.295Z,3.65
2017-09-18T03:01:10.868Z,3.80
2017-09-18T03:03:39.215Z,3.22
2017-09-18T03:06:44.748Z,2.95
2017-09-18T03:09:12.330Z,3.72
2017-09-18T03:11:39.887Z,3.85
2017-09-18T03:14:07.495Z,3.85
2017-09-18T03:16:35.874Z,3.90
2017-09-18T03:19:04.390Z,4.20
2017-09-18T03:21:31.963Z,4.00
2017-09-18T03:23:59.528Z,4.03
2017-09-18T03:26:27.289Z,3.57
2017-09-18T03:28:54.839Z,4.03
2017-09-18T03:31:22.422Z,3.80
2017-09-18T03:33:49.995Z,3.90
2017-09-18T03:36:17.596Z,4.30
2017-09-18T03:38:45.924Z,3.75
2017-09-18T03:41:13.535Z,3.60
2017-09-18T03:43:41.853Z,3.65
2017-09-18T03:46:09.414Z,4.45
2017-09-18T03:48:37.012Z,3.35
2017-09-18T03:51:04.558Z,3.40
2017-09-18T03:53:32.110Z,3.83
2017-09-18T03:55:59.839Z,4.27
2017-09-18T03:58:27.455Z,4.50
2017-09-18T04:00:55.033Z,3.87
2017-09-18T04:03:22.597Z,3.58
2017-09-18T04:05:50.203Z,3.50
2017-09-18T04:08:18.568Z,4.50
2017-09-18T04:10:46.142Z,3.97
2017-09-18T04:13:14.516Z,3.83
2017-09-18T04:15:42.069Z,3.90
2017-09-18T04:18:10.419Z,4.03
2017-09-18T04:20:37.971Z,4.25
2017-09-18T04:23:05.518Z,3.87
2017-09-18T04:25:33.102Z,4.00
2017-09-18T04:28:00.670Z,4.60
2017-09-18T04:30:28.265Z,4.30
2017-09-18T04:32:56.713Z,4.28
2017-09-18T04:35:24.284Z,4.80
2017-09-18T04:37:51.860Z,3.90
2017-09-18T04:40:19.418Z,4.20
2017-09-18T04:42:47.850Z,5.03
2017-09-18T04:45:15.422Z,4.60
2017-09-18T04:47:43.003Z,4.82
2017-09-18T04:50:10.579Z,4.82
2017-09-18T04:52:38.166Z,4.10
2017-09-18T04:55:05.733Z,3.97
2017-09-18T04:57:34.050Z,4.20
2017-09-18T05:00:01.646Z,4.53
2017-09-18T05:02:29.238Z,4.90
2017-09-18T05:04:57.616Z,4.75
2017-09-18T05:07:25.972Z,4.60
2017-09-18T05:09:53.542Z,4.93
2017-09-18T05:12:21.269Z,4.10
2017-09-18T05:14:48.852Z,3.97
2017-09-18T05:17:16.443Z,4.25
2017-09-18T05:19:44.785Z,3.60
2017-09-18T05:22:12.379Z,3.87
2017-09-18T05:24:39.965Z,4.00
2017-09-18T05:27:07.527Z,3.95
2017-09-18T05:29:35.112Z,3.97
2017-09-18T05:32:02.691Z,4.00
2017-09-18T05:34:30.286Z,4.40
2017-09-18T05:36:58.640Z,4.93
2017-09-18T05:39:26.211Z,4.32
2017-09-18T05:41:53.787Z,4.37
2017-09-18T05:44:22.111Z,4.25
2017-09-18T05:46:49.706Z,5.20
2017-09-18T05:49:17.271Z,4.57
2017-09-18T05:51:44.846Z,5.50
2017-09-18T05:54:12.433Z,4.60
2017-09-18T05:56:39.996Z,5.00
2017-09-18T05:59:07.556Z,4.60
2017-09-18T06:01:35.473Z,5.55
2017-09-18T06:04:03.034Z,5.17
2017-09-18T06:06:30.640Z,4.40
2017-09-18T06:08:58.994Z,5.03
2017-09-18T06:11:26.567Z,5.22
2017-09-18T06:13:54.166Z,4.30
2017-09-18T06:16:21.934Z,4.70
2017-09-18T06:18:49.503Z,4.40
2017-09-18T06:21:17.071Z,5.57
2017-09-18T06:23:44.658Z,5.40
2017-09-18T06:26:12.218Z,5.00
2017-09-18T06:28:39.777Z,4.70
2017-09-18T06:31:07.373Z,5.73
2017-09-18T06:33:34.959Z,4.93
2017-09-18T06:36:03.340Z,4.87
2017-09-18T06:38:31.675Z,4.83
2017-09-18T06:40:59.251Z,7.30
2017-09-18T06:43:27.778Z,4.93
2017-09-18T06:45:55.344Z,6.10
2017-09-18T06:48:22.930Z,4.60
2017-09-18T06:50:50.506Z,5.27
2017-09-18T06:53:18.103Z,5.33
2017-09-18T06:55:46.436Z,4.70
2017-09-18T06:58:14.015Z,4.60
2017-09-18T07:00:41.573Z,5.07
2017-09-18T07:03:09.144Z,5.17
2017-09-18T07:05:36.727Z,4.73
2017-09-18T07:08:05.053Z,4.53
2017-09-18T07:10:32.773Z,4.47
2017-09-18T07:13:01.133Z,4.27
2017-09-18T07:15:28.837Z,4.60
2017-09-18T07:17:56.445Z,4.30
2017-09-18T07:20:24.261Z,5.17
2017-09-18T07:22:51.846Z,4.80
2017-09-18T07:25:19.419Z,4.73
2017-09-18T07:27:47.008Z,5.50
2017-09-18T07:30:14.562Z,5.00
2017-09-18T07:32:42.404Z,3.83
2017-09-18T07:35:09.985Z,3.87
2017-09-18T07:37:37.595Z,4.80
2017-09-18T07:40:05.179Z,5.30
2017-09-18T07:42:32.762Z,4.30
2017-09-18T07:45:00.353Z,4.77
2017-09-18T07:47:28.687Z,5.43
2017-09-18T07:49:56.473Z,4.63
2017-09-18T07:52:24.050Z,5.00
2017-09-18T07:54:51.689Z,3.80
2017-09-18T07:57:19.271Z,3.80
2017-09-18T07:59:46.846Z,4.43
2017-09-18T08:02:15.167Z,4.40
2017-09-18T08:04:42.808Z,4.23
2017-09-18T08:07:11.132Z,4.20
2017-09-18T08:09:38.958Z,3.70
2017-09-18T08:12:06.652Z,4.10
2017-09-18T08:14:34.394Z,4.23
2017-09-18T08:17:02.869Z,4.93
2017-09-18T08:19:31.345Z,4.30
2017-09-18T08:21:59.674Z,4.50
2017-09-18T08:24:27.253Z,4.53
2017-09-18T08:26:54.811Z,5.07
2017-09-18T08:29:22.708Z,5.10
2017-09-18T08:31:51.210Z,4.87
2017-09-18T08:34:18.801Z,5.00
2017-09-18T08:36:47.778Z,5.30
2017-09-18T08:39:15.526Z,4.83
2017-09-18T08:41:43.259Z,5.40
2017-09-18T08:44:10.882Z,4.73
2017-09-18T08:46:39.261Z,4.50
2017-09-18T08:49:07.788Z,4.50
2017-09-18T08:51:35.501Z,5.70
2017-09-18T08:54:03.154Z,6.73
2017-09-18T08:56:31.522Z,5.20
2017-09-18T08:58:59.207Z,6.70
2017-09-18T09:01:27.539Z,6.50
2017-09-18T09:03:55.237Z,6.57
2017-09-18T09:06:22.940Z,6.13
2017-09-18T09:08:50.564Z,6.60
2017-09-18T09:11:18.206Z,5.43
2017-09-18T09:13:45.798Z,6.20
2017-09-18T09:16:14.163Z,6.30
2017-09-18T09:18:41.760Z,5.67
2017-09-18T09:21:10.142Z,6.50
2017-09-18T09:23:38.815Z,6.00
2017-09-18T09:26:07.213Z,6.00
2017-09-18T09:28:34.838Z,6.20
2017-09-18T09:31:02.527Z,6.17
2017-09-18T09:33:30.856Z,6.40
2017-09-18T09:35:58.547Z,7.17
2017-09-18T09:38:26.131Z,6.33
2017-09-18T10:18:42.443Z,3.03
2017-09-18T10:21:10.040Z,3.63
2017-09-18T10:23:37.647Z,4.30
2017-09-18T10:26:05.250Z,4.13
2017-09-18T10:28:32.848Z,3.77
2017-09-18T10:31:01.194Z,3.60
2017-09-18T10:33:28.756Z,4.23
2017-09-18T10:35:56.430Z,4.70
2017-09-18T10:38:25.074Z,5.37
2017-09-18T10:40:52.685Z,4.00
2017-09-18T10:43:20.269Z,5.00
2017-09-18T10:45:47.829Z,4.33
2017-09-18T10:48:16.190Z,5.20
2017-09-18T10:50:43.837Z,3.60
2017-09-18T10:53:11.406Z,2.67
2017-09-18T10:55:39.141Z,3.10
2017-09-18T10:58:06.751Z,3.37
2017-09-18T11:00:35.097Z,3.27
2017-09-18T11:03:03.676Z,3.20
2017-09-18T11:05:31.413Z,3.40
2017-09-18T11:07:59.294Z,3.50
2017-09-18T11:10:27.044Z,5.07
2017-09-18T11:12:55.459Z,3.60
2017-09-18T11:15:23.038Z,3.03
2017-09-18T11:17:50.681Z,2.53
2017-09-18T11:20:18.507Z,2.87
2017-09-18T11:22:46.863Z,2.50
2017-09-18T11:25:14.420Z,3.07
2017-09-18T11:27:42.059Z,3.07
2017-09-18T11:30:09.646Z,3.10
2017-09-18T11:32:37.205Z,3.80
2017-09-18T11:35:04.790Z,3.10
2017-09-18T11:37:33.382Z,2.90
2017-09-18T11:40:01.728Z,2.60
2017-09-18T11:42:29.332Z,3.00
2017-09-18T11:44:57.743Z,3.20
2017-09-18T11:47:25.316Z,2.80
2017-09-18T11:49:52.859Z,3.37
2017-09-18T11:52:20.540Z,3.10
2017-09-18T11:54:48.125Z,2.97
2017-09-18T11:57:16.460Z,2.63
2017-09-18T11:59:44.056Z,2.90
2017-09-18T12:02:11.645Z,2.50
2017-09-18T12:04:40.651Z,2.70
2017-09-18T12:07:08.987Z,3.00
2017-09-18T12:09:36.584Z,3.30
2017-09-18T12:12:05.035Z,3.60
2017-09-18T12:14:32.586Z,3.10
2017-09-18T12:17:00.171Z,2.60
2017-09-18T12:19:28.503Z,2.37
2017-09-18T12:21:56.086Z,1.90
2017-09-18T12:24:23.667Z,2.00
2017-09-18T12:26:51.235Z,1.83
2017-09-18T12:29:18.817Z,2.13
2017-09-18T12:31:47.187Z,1.80
2017-09-18T12:34:14.932Z,1.83
2017-09-18T12:36:42.544Z,1.80
2017-09-18T12:39:10.125Z,2.00
2017-09-18T12:41:37.742Z,1.87
2017-09-18T12:44:05.334Z,4.50
2017-09-18T12:46:32.958Z,1.70
2017-09-18T12:49:00.564Z,1.60
2017-09-18T12:51:28.154Z,1.70
2017-09-18T12:53:55.752Z,2.00
2017-09-18T12:56:24.097Z,2.00
2017-09-18T12:58:51.683Z,1.87
2017-09-18T13:01:20.017Z,2.00
2017-09-18T13:03:47.630Z,2.83
2017-09-18T13:06:15.345Z,2.63
2017-09-18T13:08:42.901Z,1.73
2017-09-18T13:11:10.603Z,1.60
2017-09-18T13:13:38.306Z,1.80
2017-09-18T13:16:06.671Z,1.57
2017-09-18T13:18:34.235Z,1.93
2017-09-18T13:21:02.595Z,1.70
2017-09-18T13:23:30.204Z,2.50
2017-09-18T13:25:57.813Z,3.70
2017-09-18T13:28:25.407Z,1.87
2017-09-18T13:30:53.784Z,1.80
2017-09-18T13:33:21.368Z,1.40
2017-09-18T13:35:49.728Z,1.57
2017-09-18T13:38:17.295Z,1.47
2017-09-18T13:40:44.863Z,2.00
2017-09-18T13:43:13.242Z,2.20
2017-09-18T13:45:41.593Z,2.53
2017-09-18T13:48:09.199Z,2.40
2017-09-18T13:50:37.649Z,2.20
2017-09-18T13:53:05.995Z,2.23
2017-09-18T13:55:33.578Z,1.97
2017-09-18T13:58:01.155Z,2.87
2017-09-18T14:00:28.760Z,2.50
2017-09-18T14:02:56.366Z,2.27
2017-09-18T14:05:23.965Z,2.67
2017-09-18T14:07:52.299Z,1.90
2017-09-18T14:10:19.898Z,1.77
2017-09-18T14:12:48.251Z,2.20
2017-09-18T14:15:15.927Z,2.10
2017-09-18T14:17:44.536Z,1.90
2017-09-18T14:20:12.233Z,1.60
2017-09-18T14:22:40.624Z,2.20
2017-09-18T14:25:08.346Z,2.17
2017-09-18T14:27:36.724Z,2.10
2017-09-18T14:30:05.130Z,1.87
2017-09-18T14:32:32.726Z,1.80
2017-09-18T14:35:00.339Z,1.67
2017-09-18T14:37:28.850Z,2.00
2017-09-18T14:39:56.469Z,1.93
2017-09-18T14:42:24.070Z,1.70
2017-09-18T14:44:51.692Z,1.60
2017-09-18T14:47:20.039Z,1.90
2017-09-18T14:49:47.623Z,2.00
2017-09-18T14:52:15.995Z,3.07
2017-09-18T14:54:43.604Z,2.47
2017-09-18T14:57:11.172Z,2.20
2017-09-18T14:59:38.772Z,2.20
2017-09-18T15:02:06.353Z,2.60
2017-09-18T15:04:33.951Z,2.20
2017-09-18T15:07:01.682Z,2.60
2017-09-18T15:09:29.263Z,1.93
2017-09-18T15:11:57.646Z,2.40
2017-09-18T15:14:26.250Z,2.50
2017-09-18T15:16:53.831Z,2.73
2017-09-18T15:19:21.414Z,2.47
2017-09-18T15:21:49.009Z,2.20
2017-09-18T15:24:16.571Z,2.20
2017-09-18T15:26:44.918Z,2.57
2017-09-18T15:29:12.486Z,1.90
2017-09-18T15:31:40.220Z,2.73
2017-09-18T15:34:07.804Z,1.73
2017-09-18T15:36:35.391Z,2.10
2017-09-18T15:39:03.735Z,5.40
2017-09-18T15:41:31.340Z,1.70
2017-09-18T15:43:58.931Z,2.03
2017-09-18T15:46:27.270Z,1.77
2017-09-18T15:48:54.850Z,1.60
2017-09-18T15:51:23.242Z,2.00
2017-09-18T15:53:51.656Z,2.73
2017-09-18T15:56:19.236Z,2.30
2017-09-18T15:58:46.823Z,3.13
2017-09-18T16:01:14.397Z,2.30
2017-09-18T16:03:42.759Z,1.97
2017-09-18T16:06:10.367Z,3.63
2017-09-18T16:08:37.960Z,3.00
2017-09-18T16:11:05.547Z,4.30
2017-09-18T16:13:33.107Z,3.17
2017-09-18T16:16:00.727Z,2.23
2017-09-18T16:18:28.334Z,1.80
2017-09-18T16:20:55.920Z,3.43
2017-09-18T16:23:24.317Z,2.03
2017-09-18T16:25:51.894Z,2.20
2017-09-18T16:28:19.485Z,2.20
2017-09-18T16:30:47.071Z,2.33
2017-09-18T16:33:15.532Z,1.97
2017-09-18T16:50:12.588Z,3.67
2017-09-18T16:55:34.015Z,1.90
2017-09-18T16:58:01.819Z,2.50
2017-09-18T17:00:30.175Z,2.07
2017-09-18T17:02:59.020Z,2.30
2017-09-18T17:05:26.596Z,2.50
2017-09-18T17:07:54.175Z,2.87
2017-09-18T17:10:21.792Z,2.70
2017-09-18T17:12:49.373Z,2.50
2017-09-18T17:15:16.977Z,3.10
2017-09-18T17:17:44.693Z,3.00
2017-09-18T17:20:12.414Z,3.07
2017-09-18T17:22:39.987Z,3.30
2017-09-18T17:25:08.510Z,3.30
2017-09-18T17:27:36.099Z,3.50
2017-09-18T17:30:04.015Z,2.73
2017-09-18T17:32:32.399Z,2.70
2017-09-18T17:35:00.249Z,2.93
2017-09-18T17:37:28.695Z,3.50
2017-09-18T17:39:56.484Z,4.03
2017-09-18T17:42:24.124Z,4.40
2017-09-18T17:44:52.021Z,4.20
2017-09-18T17:47:19.664Z,6.00
2017-09-18T17:49:47.261Z,5.73
2017-09-18T17:52:15.642Z,5.07
2017-09-18T17:54:44.003Z,5.70
2017-09-18T17:57:11.629Z,5.73
2017-09-18T17:59:39.204Z,5.47
2017-09-18T18:02:06.784Z,5.67
2017-09-18T18:04:34.611Z,4.90
2017-09-18T18:07:02.199Z,3.30
2017-09-18T18:09:29.783Z,4.20
2017-09-18T18:11:58.494Z,3.80
2017-09-18T18:14:26.862Z,4.60
2017-09-18T18:16:55.249Z,5.37
2017-09-18T18:19:23.576Z,4.63
2017-09-18T18:21:51.172Z,4.80
2017-09-18T18:24:18.754Z,4.50
2017-09-18T18:29:39.451Z,4.10
2017-09-18T18:32:07.046Z,3.50
2017-09-18T18:34:35.707Z,4.23
2017-09-18T18:37:04.142Z,4.07
2017-09-18T18:39:32.551Z,2.83
2017-09-18T18:42:00.287Z,3.70
2017-09-18T18:44:28.389Z,3.43
2017-09-18T18:46:56.056Z,2.70
2017-09-18T18:49:23.777Z,2.90
2017-09-18T18:51:52.156Z,4.10
2017-09-18T18:54:20.516Z,3.03
2017-09-18T19:11:13.633Z,4.67
2017-09-18T19:13:41.203Z,4.53
2017-09-18T19:16:08.868Z,4.83
2017-09-18T19:18:36.466Z,5.10
2017-09-18T19:21:04.838Z,5.00
2017-09-18T19:23:32.415Z,5.00
2017-09-18T19:26:00.011Z,5.10
2017-09-18T19:28:27.818Z,4.90
2017-09-18T19:30:55.410Z,4.87
2017-09-18T19:33:23.358Z,5.00
2017-09-18T19:35:51.781Z,5.90
2017-09-18T19:38:20.111Z,5.60
2017-09-18T19:40:47.697Z,5.47
2017-09-18T19:43:15.536Z,6.60
2017-09-18T19:45:43.096Z,6.67
2017-09-18T19:48:10.711Z,5.63
2017-09-18T19:50:39.084Z,7.97
2017-09-18T19:53:07.443Z,7.57
2017-09-18T19:55:39.006Z,8.33
2017-09-18T19:58:06.601Z,8.13
2017-09-18T20:00:35.150Z,8.93
2017-09-18T20:03:02.785Z,6.80
2017-09-18T20:05:31.363Z,6.23
2017-09-18T20:07:58.934Z,5.30
2017-09-18T20:10:26.763Z,6.40
2017-09-18T20:12:54.328Z,5.90
2017-09-18T20:15:21.927Z,5.80
2017-09-18T20:17:49.528Z,5.47
2017-09-18T20:20:17.154Z,5.50
2017-09-18T20:22:44.793Z,5.20
2017-09-18T20:25:12.606Z,6.97
2017-09-18T20:27:40.550Z,4.70
2017-09-18T20:30:08.348Z,5.50
2017-09-18T20:32:36.938Z,5.87
2017-09-18T20:35:04.699Z,4.60
2017-09-18T20:37:33.184Z,5.23
2017-09-18T20:40:00.936Z,5.20
2017-09-18T20:42:29.363Z,5.63
2017-09-18T20:44:57.021Z,5.07
2017-09-18T20:47:24.662Z,5.90
2017-09-18T20:49:53.048Z,6.10
2017-09-18T20:52:20.696Z,5.40
2017-09-18T20:54:49.048Z,5.63
2017-09-18T20:57:17.452Z,5.97
2017-09-18T20:59:45.890Z,6.00
2017-09-18T21:02:13.497Z,6.83
2017-09-18T21:04:42.011Z,6.80
2017-09-18T21:07:09.639Z,6.03
2017-09-18T21:09:37.242Z,5.73
2017-09-18T21:12:13.907Z,4.90
2017-09-18T21:14:41.499Z,5.60
2017-09-18T21:17:09.132Z,5.70
2017-09-18T21:19:36.756Z,5.00
2017-09-18T21:22:04.346Z,6.73
2017-09-18T21:24:31.985Z,7.43
2017-09-18T21:26:59.553Z,6.90
2017-09-18T21:29:27.914Z,7.90
2017-09-18T21:31:55.576Z,6.30
2017-09-18T21:34:23.192Z,7.27
2017-09-18T21:36:50.782Z,6.47
2017-09-18T21:39:18.416Z,6.60
2017-09-18T21:41:46.023Z,5.83
2017-09-18T21:44:13.677Z,5.97
2017-09-18T21:46:41.345Z,6.97
2017-09-18T21:49:08.901Z,7.17
2017-09-18T21:51:36.486Z,7.30
2017-09-18T21:54:04.837Z,7.80
2017-09-18T21:56:32.535Z,8.43
2017-09-18T21:59:00.149Z,6.90
2017-09-18T22:01:27.718Z,7.80
2017-09-18T22:03:55.425Z,7.63
2017-09-18T22:06:23.772Z,7.40
2017-09-18T22:08:51.478Z,7.70
2017-09-18T22:11:19.172Z,7.63
2017-09-18T22:13:46.748Z,8.10
2017-09-18T22:16:14.319Z,7.87
2017-09-18T22:18:41.908Z,7.63
2017-09-18T22:21:10.258Z,7.93
2017-09-18T22:23:37.850Z,8.30
2017-09-18T22:26:05.602Z,7.87
2017-09-18T22:28:33.176Z,7.67
2017-09-18T22:31:00.752Z,7.63
2017-09-18T22:33:29.389Z,8.93
2017-09-18T22:35:57.940Z,8.40
2017-09-18T22:38:25.579Z,8.77
2017-09-18T22:40:53.947Z,9.37
2017-09-18T22:43:21.530Z,11.00
2017-09-18T22:45:49.121Z,13.43
2017-09-18T22:48:16.688Z,14.60
2017-09-18T22:50:44.274Z,15.23
2017-09-18T22:53:11.883Z,14.43
2017-09-18T22:55:39.454Z,14.30
2017-09-18T22:58:07.064Z,15.83
2017-09-18T23:00:34.664Z,16.87
2017-09-18T23:03:02.266Z,15.17
2017-09-18T23:05:29.826Z,14.47
2017-09-18T23:07:58.067Z,13.47
2017-09-18T23:10:25.648Z,13.90
2017-09-18T23:12:53.226Z,12.67
2017-09-18T23:15:20.823Z,13.33
2017-09-18T23:17:49.174Z,13.27
2017-09-18T23:20:16.782Z,14.50
2017-09-18T23:22:45.131Z,14.97
2017-09-18T23:25:12.713Z,14.90
2017-09-18T23:27:41.137Z,14.00
2017-09-18T23:30:08.724Z,15.17
2017-09-18T23:32:36.287Z,16.70
2017-09-18T23:35:03.893Z,15.17
2017-09-18T23:37:32.227Z,19.47
2017-09-18T23:39:59.818Z,16.03
2017-09-18T23:42:28.163Z,16.30
2017-09-18T23:44:55.831Z,16.37
2017-09-18T23:47:23.436Z,17.37
2017-09-18T23:49:51.786Z,16.07
2017-09-18T23:52:19.339Z,18.23
2017-09-18T23:54:46.894Z,18.10
2017-09-18T23:57:14.594Z,17.03
2017-09-18T23:59:42.945Z,18.47
